createdAt,value
2018-11-25T00:06:53.785Z,0.67
2018-11-25T00:17:11.800Z,1.14
2018-11-25T00:27:29.855Z,1.21
2018-11-25T00:37:48.867Z,1.57
2018-11-25T00:48:05.448Z,1.73
2018-11-25T00:58:23.524Z,2.01
2018-11-25T01:08:41.826Z,2.04
2018-11-25T01:18:59.919Z,1.80
2018-11-25T01:29:18.197Z,1.97
2018-11-25T01:39:36.193Z,2.16
2018-11-25T01:49:54.541Z,2.22
2018-11-25T02:00:22.346Z,2.31
2018-11-25T02:10:40.588Z,2.28
2018-11-25T02:20:59.000Z,2.15
2018-11-25T02:31:17.350Z,2.14
2018-11-25T02:41:35.480Z,2.30
2018-11-25T02:51:53.480Z,2.15
2018-11-25T03:02:10.966Z,2.06
2018-11-25T03:12:28.935Z,2.00
2018-11-25T03:22:47.505Z,1.82
2018-11-25T03:33:05.884Z,1.72
2018-11-25T03:43:28.823Z,1.98
2018-11-25T03:53:47.415Z,1.91
2018-11-25T04:04:06.152Z,1.52
2018-11-25T04:14:25.175Z,1.53
2018-11-25T04:24:43.579Z,1.70
2018-11-25T04:35:02.084Z,1.63
2018-11-25T04:45:21.629Z,1.54
2018-11-25T04:55:40.112Z,1.51
2018-11-25T05:05:58.671Z,1.61
2018-11-25T05:16:17.689Z,1.59
2018-11-25T05:26:35.678Z,1.53
2018-11-25T05:36:53.758Z,1.53
2018-11-25T05:47:11.864Z,1.64
2018-11-25T05:57:30.286Z,1.70
2018-11-25T06:07:48.762Z,1.64
2018-11-25T06:18:06.563Z,1.80
2018-11-25T06:28:25.846Z,1.89
2018-11-25T06:38:44.529Z,1.98
2018-11-25T06:49:03.207Z,1.86
2018-11-25T06:59:21.296Z,1.86
2018-11-25T07:09:39.402Z,1.91
2018-11-25T07:19:57.338Z,1.92
2018-11-25T07:30:22.277Z,1.96
2018-11-25T07:40:40.595Z,1.98
2018-11-25T07:50:58.745Z,2.15
2018-11-25T08:01:16.615Z,2.29
2018-11-25T08:11:34.623Z,2.31
2018-11-25T08:21:52.825Z,2.29
2018-11-25T08:32:10.925Z,2.60
2018-11-25T08:42:29.193Z,2.60
2018-11-25T08:52:51.391Z,2.94
2018-11-25T09:03:09.817Z,2.99
2018-11-25T09:13:27.862Z,2.95
2018-11-25T09:23:45.610Z,3.06
2018-11-25T09:34:03.875Z,3.25
2018-11-25T09:44:21.662Z,3.69
2018-11-25T09:54:39.657Z,3.75
2018-11-25T10:04:57.388Z,3.49
2018-11-25T10:15:16.883Z,3.71
2018-11-25T10:25:35.233Z,3.78
2018-11-25T10:35:53.179Z,3.89
2018-11-25T10:46:11.610Z,3.92
2018-11-25T10:56:29.333Z,3.99
2018-11-25T11:07:05.596Z,4.44
2018-11-25T11:17:24.225Z,4.86
2018-11-25T11:28:01.607Z,4.78
2018-11-25T11:38:22.534Z,4.79
2018-11-25T11:48:41.837Z,4.80
2018-11-25T11:59:06.648Z,4.95
2018-11-25T12:09:25.695Z,5.15
2018-11-25T12:19:44.452Z,5.45
2018-11-25T12:30:04.658Z,5.46
2018-11-25T12:40:26.285Z,5.55
2018-11-25T12:50:44.617Z,5.48
2018-11-25T13:01:03.070Z,5.42
2018-11-25T13:11:21.138Z,5.33
2018-11-25T13:21:39.078Z,4.99
2018-11-25T13:31:57.879Z,4.88
2018-11-25T13:42:17.605Z,4.84
2018-11-25T13:52:35.417Z,4.91
2018-11-25T14:02:53.747Z,4.89
2018-11-25T14:13:14.182Z,4.82
2018-11-25T14:23:33.087Z,4.89
2018-11-25T14:33:52.175Z,4.72
2018-11-25T14:44:10.952Z,4.71
2018-11-25T14:54:29.524Z,4.68
2018-11-25T15:04:50.397Z,4.81
2018-11-25T15:15:13.100Z,4.73
2018-11-25T15:25:33.118Z,4.69
2018-11-25T15:35:52.354Z,4.82
2018-11-25T15:46:10.604Z,4.73
2018-11-25T15:56:29.383Z,4.74
2018-11-25T16:06:48.161Z,4.77
2018-11-25T16:17:06.478Z,4.87
2018-11-25T16:27:24.756Z,4.73
2018-11-25T16:37:43.278Z,4.91
2018-11-25T16:48:01.687Z,4.88
2018-11-25T16:58:20.341Z,4.86
2018-11-25T17:08:40.164Z,4.75
2018-11-25T17:18:58.839Z,4.87
2018-11-25T17:29:17.198Z,5.02
2018-11-25T17:39:35.567Z,4.84
2018-11-25T17:49:53.672Z,4.79
2018-11-25T18:00:56.657Z,4.89
2018-11-25T18:11:14.806Z,4.76
2018-11-25T18:21:32.487Z,4.88
2018-11-25T18:31:50.663Z,4.93
2018-11-25T18:42:08.925Z,4.86
2018-11-25T18:52:26.694Z,4.68
2018-11-25T19:02:45.266Z,4.69
2018-11-25T19:13:04.323Z,4.45
2018-11-25T19:23:23.900Z,4.35
2018-11-25T19:33:42.595Z,4.51
2018-11-25T19:44:00.399Z,4.27
2018-11-25T19:54:19.047Z,4.38
2018-11-25T20:04:38.076Z,4.24
2018-11-25T20:14:56.022Z,4.33
2018-11-25T20:25:15.241Z,4.16
2018-11-25T20:35:33.968Z,4.25
2018-11-25T20:46:10.129Z,4.34
2018-11-25T20:56:28.491Z,4.52
2018-11-25T21:06:47.407Z,4.35
2018-11-25T21:17:05.501Z,4.39
2018-11-25T21:27:23.753Z,4.34
2018-11-25T22:36:30.588Z,4.43
2018-11-25T22:46:49.520Z,4.50
2018-11-25T22:57:10.035Z,4.35
2018-11-25T23:07:29.375Z,4.49
2018-11-25T23:17:48.576Z,4.29
2018-11-25T23:28:07.296Z,4.39
2018-11-25T23:38:27.238Z,4.37
2018-11-25T23:48:47.381Z,4.41
2018-11-25T23:59:07.091Z,4.34
